createdAt,value
2022-09-23T00:02:10.771Z,11.54
2022-09-23T00:04:37.762Z,11.68
2022-09-23T00:07:04.497Z,11.46
2022-09-23T00:09:31.397Z,11.63
2022-09-23T00:11:58.422Z,11.82
2022-09-23T00:14:25.095Z,11.68
2022-09-23T00:16:51.740Z,11.49
2022-09-23T00:19:18.694Z,11.07
2022-09-23T00:21:45.377Z,11.24
2022-09-23T00:24:12.013Z,11.60
2022-09-23T00:26:38.895Z,11.82
2022-09-23T00:29:05.577Z,11.42
2022-09-23T00:31:32.183Z,11.33
2022-09-23T00:34:00.342Z,11.33
2022-09-23T00:36:27.665Z,11.11
2022-09-23T00:38:55.423Z,10.96
2022-09-23T00:41:22.553Z,11.35
2022-09-23T00:43:49.166Z,11.55
2022-09-23T00:46:20.694Z,11.01
2022-09-23T00:48:48.467Z,11.08
2022-09-23T00:51:17.895Z,11.47
2022-09-23T00:53:45.942Z,10.94
2022-09-23T00:56:12.962Z,10.68
2022-09-23T00:58:40.116Z,10.99
2022-09-23T01:01:06.848Z,11.44
2022-09-23T01:03:33.837Z,11.36
2022-09-23T01:06:00.509Z,11.38
2022-09-23T01:08:27.229Z,10.87
2022-09-23T01:11:10.399Z,11.03
2022-09-23T01:13:52.485Z,10.94
2022-09-23T01:16:25.216Z,11.13
2022-09-23T01:18:55.126Z,11.24
2022-09-23T01:21:37.331Z,10.97
2022-09-23T01:24:16.361Z,10.93
2022-09-23T01:26:46.266Z,10.96
2022-09-23T01:29:18.948Z,10.82
2022-09-23T01:31:48.976Z,11.05
2022-09-23T01:34:17.989Z,10.86
2022-09-23T01:36:47.282Z,10.79
2022-09-23T01:39:17.044Z,11.01
2022-09-23T01:41:47.253Z,10.71
2022-09-23T01:44:34.881Z,10.64
2022-09-23T01:47:08.155Z,10.90
2022-09-23T01:49:55.322Z,10.63
2022-09-23T01:52:40.742Z,10.94
2022-09-23T01:55:10.866Z,10.90
2022-09-23T01:57:40.908Z,10.66
2022-09-23T02:00:09.369Z,10.43
2022-09-23T02:02:44.325Z,10.66
2022-09-23T02:05:12.531Z,10.71
2022-09-23T02:07:59.429Z,10.79
2022-09-23T02:10:32.188Z,10.25
2022-09-23T02:13:00.011Z,10.41
2022-09-23T02:15:29.244Z,10.46
2022-09-23T02:17:58.811Z,10.53
2022-09-23T02:20:28.159Z,10.34
2022-09-23T02:22:56.899Z,10.22
2022-09-23T02:25:25.841Z,10.18
2022-09-23T02:27:57.125Z,10.44
2022-09-23T02:30:28.014Z,10.05
2022-09-23T02:32:58.045Z,10.34
2022-09-23T02:35:25.595Z,10.18
2022-09-23T02:38:10.947Z,10.33
2022-09-23T02:40:40.098Z,10.24
2022-09-23T02:43:09.616Z,10.45
2022-09-23T02:45:39.091Z,10.54
2022-09-23T02:48:10.938Z,10.52
2022-09-23T02:50:37.661Z,10.39
2022-09-23T02:53:04.787Z,10.47
2022-09-23T02:55:32.452Z,10.50
2022-09-23T02:58:02.923Z,10.33
2022-09-23T03:00:37.009Z,10.35
2022-09-23T03:03:04.061Z,10.40
2022-09-23T03:05:31.783Z,10.33
2022-09-23T03:08:12.907Z,10.42
2022-09-23T03:11:04.398Z,10.41
2022-09-23T03:14:16.858Z,10.23
2022-09-23T03:16:47.773Z,10.15
2022-09-23T03:19:23.501Z,10.39
2022-09-23T03:21:56.854Z,10.17
2022-09-23T03:24:23.877Z,9.88
2022-09-23T03:26:50.772Z,9.81
2022-09-23T03:29:17.887Z,9.84
2022-09-23T03:31:44.567Z,9.89
2022-09-23T03:34:16.575Z,10.27
2022-09-23T03:36:57.286Z,10.31
2022-09-23T03:39:26.895Z,10.18
2022-09-23T03:41:53.586Z,10.35
2022-09-23T03:44:21.651Z,9.96
2022-09-23T03:46:51.543Z,10.15
2022-09-23T03:49:19.941Z,9.92
2022-09-23T03:51:46.627Z,10.30
2022-09-23T03:54:13.616Z,9.82
2022-09-23T03:56:40.452Z,9.99
2022-09-23T03:59:07.150Z,10.15
2022-09-23T04:01:34.197Z,10.23
2022-09-23T04:04:01.371Z,9.99
2022-09-23T04:06:28.147Z,10.08
2022-09-23T04:08:54.805Z,9.97
2022-09-23T04:11:21.810Z,10.12
2022-09-23T04:13:48.839Z,10.21
2022-09-23T04:16:15.653Z,10.08
2022-09-23T04:18:42.954Z,10.01
2022-09-23T04:21:10.077Z,10.04
2022-09-23T04:23:39.102Z,9.98
2022-09-23T04:26:07.198Z,9.99
2022-09-23T04:28:34.400Z,9.61
2022-09-23T04:31:05.051Z,9.61
2022-09-23T04:33:32.050Z,9.62
2022-09-23T04:35:58.731Z,9.51
2022-09-23T04:38:25.578Z,9.86
2022-09-23T04:40:52.548Z,9.74
2022-09-23T04:43:23.064Z,9.50
2022-09-23T04:46:15.951Z,9.82
2022-09-23T04:48:43.032Z,9.96
2022-09-23T04:51:13.632Z,10.08
2022-09-23T04:53:41.031Z,10.15
2022-09-23T04:56:10.153Z,10.21
2022-09-23T04:58:37.055Z,10.07
2022-09-23T05:01:10.280Z,10.18
2022-09-23T05:03:37.318Z,10.20
2022-09-23T05:06:04.140Z,10.19
2022-09-23T05:08:31.407Z,10.34
2022-09-23T05:10:58.940Z,10.18
2022-09-23T05:13:25.998Z,10.44
2022-09-23T05:16:04.940Z,10.52
2022-09-23T05:18:32.467Z,10.32
2022-09-23T05:20:59.112Z,10.62
2022-09-23T05:23:25.848Z,10.66
2022-09-23T05:25:57.258Z,10.66
2022-09-23T05:28:23.946Z,10.90
2022-09-23T05:30:50.618Z,10.63
2022-09-23T05:33:17.603Z,10.81
2022-09-23T05:35:47.489Z,10.52
2022-09-23T05:38:16.551Z,10.86
2022-09-23T05:40:43.735Z,10.92
2022-09-23T05:43:10.815Z,11.02
2022-09-23T05:45:37.569Z,10.92
2022-09-23T05:48:05.036Z,11.09
2022-09-23T05:50:32.228Z,11.37
2022-09-23T05:52:59.771Z,11.18
2022-09-23T05:55:27.115Z,11.44
2022-09-23T05:57:53.847Z,11.40
2022-09-23T06:00:20.712Z,11.62
2022-09-23T06:02:48.812Z,11.36
2022-09-23T06:05:16.366Z,11.73
2022-09-23T06:07:43.163Z,11.90
2022-09-23T06:10:10.073Z,11.64
2022-09-23T06:12:36.816Z,11.71
2022-09-23T06:15:03.626Z,11.93
2022-09-23T06:17:30.622Z,12.00
2022-09-23T06:19:57.350Z,12.21
2022-09-23T06:22:24.727Z,12.21
2022-09-23T06:24:51.662Z,12.27
2022-09-23T06:27:18.392Z,12.48
2022-09-23T06:29:45.045Z,12.39
2022-09-23T06:32:11.968Z,12.57
2022-09-23T06:34:49.613Z,12.59
2022-09-23T06:37:20.399Z,12.76
2022-09-23T06:39:47.546Z,12.69
2022-09-23T06:42:15.882Z,12.72
2022-09-23T06:44:43.036Z,12.97
2022-09-23T06:47:09.709Z,12.96
2022-09-23T06:49:36.886Z,13.25
2022-09-23T06:52:05.138Z,13.31
2022-09-23T06:54:31.873Z,13.23
2022-09-23T06:56:58.549Z,13.65
2022-09-23T06:59:25.564Z,14.13
2022-09-23T07:01:52.422Z,14.51
2022-09-23T07:04:19.174Z,14.63
2022-09-23T07:06:46.263Z,15.20
2022-09-23T07:09:12.919Z,15.49
2022-09-23T07:11:39.780Z,15.94
2022-09-23T07:14:06.835Z,16.27
2022-09-23T07:16:33.632Z,16.92
2022-09-23T07:19:00.286Z,16.68
2022-09-23T07:21:27.925Z,17.18
2022-09-23T07:23:55.267Z,17.25
2022-09-23T07:26:22.819Z,17.14
2022-09-23T07:28:56.865Z,17.94
2022-09-23T07:31:36.637Z,18.26
2022-09-23T07:34:06.495Z,18.55
2022-09-23T07:36:33.674Z,18.69
2022-09-23T07:39:03.793Z,18.58
2022-09-23T07:41:31.520Z,18.66
2022-09-23T07:44:00.155Z,18.92
2022-09-23T07:46:27.777Z,18.97
2022-09-23T07:48:55.065Z,19.57
2022-09-23T07:51:26.773Z,19.67
2022-09-23T07:53:53.866Z,19.39
2022-09-23T07:56:22.110Z,19.33
2022-09-23T07:59:00.978Z,19.43
2022-09-23T08:01:29.439Z,19.97
2022-09-23T08:03:57.324Z,19.67
2022-09-23T08:06:23.984Z,20.03
2022-09-23T08:08:53.321Z,20.06
2022-09-23T08:11:20.672Z,20.15
2022-09-23T08:13:47.796Z,20.58
2022-09-23T08:16:14.659Z,20.03
2022-09-23T08:18:45.325Z,20.65
2022-09-23T08:21:12.213Z,20.94
2022-09-23T08:26:22.318Z,20.70
2022-09-23T08:28:50.093Z,20.53
2022-09-23T08:31:16.859Z,20.74
2022-09-23T08:33:44.478Z,20.56
2022-09-23T08:36:11.200Z,20.11
2022-09-23T08:38:37.872Z,20.41
2022-09-23T08:41:25.414Z,20.75
2022-09-23T08:43:56.675Z,20.82
2022-09-23T08:46:27.928Z,20.81
2022-09-23T08:48:54.659Z,20.69
2022-09-23T08:51:35.957Z,20.33
2022-09-23T08:54:03.025Z,20.80
2022-09-23T08:56:30.866Z,20.54
2022-09-23T08:59:10.499Z,20.99
2022-09-23T09:01:44.846Z,20.94
2022-09-23T09:04:27.967Z,21.13
2022-09-23T09:07:31.934Z,21.51
2022-09-23T09:10:29.426Z,21.24
2022-09-23T09:13:02.240Z,21.39
2022-09-23T09:15:29.556Z,21.48
2022-09-23T09:18:01.208Z,21.56
2022-09-23T09:20:42.702Z,21.06
2022-09-23T09:23:19.630Z,21.55
2022-09-23T09:25:48.987Z,21.60
2022-09-23T09:28:24.614Z,21.42
2022-09-23T09:30:53.656Z,21.53
2022-09-23T09:33:21.523Z,21.89
2022-09-23T09:36:08.998Z,21.71
2022-09-23T09:38:36.605Z,21.82
2022-09-23T09:41:17.802Z,21.71
2022-09-23T09:43:48.440Z,21.89
2022-09-23T09:46:33.098Z,21.40
2022-09-23T09:49:03.692Z,21.78
2022-09-23T09:51:30.403Z,21.92
2022-09-23T09:54:16.113Z,21.77
2022-09-23T09:56:45.077Z,21.98
2022-09-23T09:59:15.246Z,22.18
2022-09-23T10:01:42.031Z,21.47
2022-09-23T10:04:29.422Z,21.91
2022-09-23T10:07:09.864Z,21.66
2022-09-23T10:09:37.423Z,22.18
2022-09-23T10:12:04.157Z,22.21
2022-09-23T10:14:31.530Z,22.10
2022-09-23T10:17:02.352Z,21.99
2022-09-23T10:19:29.137Z,22.20
2022-09-23T10:21:56.992Z,22.25
2022-09-23T10:24:25.006Z,22.14
2022-09-23T10:27:01.667Z,21.64
2022-09-23T10:29:29.900Z,21.63
2022-09-23T10:32:15.284Z,21.23
2022-09-23T10:34:46.746Z,21.41
2022-09-23T10:37:28.453Z,21.20
2022-09-23T10:40:14.310Z,21.01
2022-09-23T10:43:14.895Z,21.48
2022-09-23T10:46:00.707Z,21.22
2022-09-23T10:48:36.066Z,20.67
2022-09-23T10:51:05.224Z,20.61
2022-09-23T10:53:42.121Z,20.76
2022-09-23T10:56:20.969Z,20.64
2022-09-23T10:58:55.606Z,20.48
2022-09-23T11:01:29.510Z,20.42
2022-09-23T11:04:03.311Z,20.33
2022-09-23T11:06:36.569Z,20.38
2022-09-23T11:09:25.598Z,20.38
2022-09-23T11:11:56.087Z,20.39
2022-09-23T11:14:44.432Z,20.18
2022-09-23T11:17:22.844Z,20.32
2022-09-23T11:20:03.528Z,20.00
2022-09-23T11:22:49.928Z,19.89
2022-09-23T11:25:17.178Z,19.56
2022-09-23T11:27:53.809Z,20.09
2022-09-23T11:30:21.400Z,20.04
2022-09-23T11:33:14.589Z,20.09
2022-09-23T11:35:51.195Z,19.96
2022-09-23T11:38:34.687Z,19.96
2022-09-23T11:41:03.588Z,19.82
2022-09-23T11:43:35.910Z,20.03
2022-09-23T11:46:06.339Z,20.27
2022-09-23T11:48:35.546Z,20.29
2022-09-23T11:51:03.335Z,20.47
2022-09-23T11:53:32.996Z,20.18
2022-09-23T11:56:06.117Z,20.48
2022-09-23T11:58:48.383Z,20.20
2022-09-23T12:01:30.390Z,20.14
2022-09-23T12:04:27.260Z,20.30
2022-09-23T12:10:17.706Z,20.13
2022-09-23T12:19:33.424Z,20.64
2022-09-23T12:22:07.669Z,21.18
2022-09-23T12:24:39.930Z,21.26
2022-09-23T12:27:45.542Z,21.18
2022-09-23T12:30:43.952Z,21.60
2022-09-23T12:33:30.866Z,21.51
2022-09-23T12:36:17.445Z,21.97
2022-09-23T12:38:51.899Z,21.96
2022-09-23T12:41:19.638Z,21.81
2022-09-23T12:46:45.704Z,22.05
2022-09-23T12:49:28.958Z,22.26
2022-09-23T12:52:11.184Z,22.10
2022-09-23T12:54:39.711Z,21.92
2022-09-23T12:57:10.110Z,22.07
2022-09-23T12:59:53.809Z,22.20
2022-09-23T13:02:24.821Z,22.31
2022-09-23T13:05:41.387Z,22.18
2022-09-23T13:08:20.604Z,21.45
2022-09-23T13:10:53.759Z,21.63
2022-09-23T13:13:25.446Z,21.78
2022-09-23T13:15:55.480Z,22.07
2022-09-23T13:18:24.031Z,21.85
2022-09-23T13:20:56.610Z,21.02
2022-09-23T13:23:34.043Z,20.81
2022-09-23T13:26:02.303Z,21.15
2022-09-23T13:28:39.586Z,21.52
2022-09-23T13:31:11.195Z,21.71
2022-09-23T13:33:49.512Z,20.99
2022-09-23T13:36:20.179Z,21.50
2022-09-23T13:38:47.743Z,20.93
2022-09-23T13:41:15.109Z,20.70
2022-09-23T13:43:44.158Z,21.02
2022-09-23T13:46:14.171Z,20.31
2022-09-23T13:48:41.587Z,21.12
2022-09-23T13:51:10.378Z,21.23
2022-09-23T13:53:40.648Z,21.72
2022-09-23T13:56:14.859Z,21.67
2022-09-23T13:58:43.464Z,21.61
2022-09-23T14:01:24.139Z,21.39
2022-09-23T14:03:51.774Z,21.09
2022-09-23T14:06:19.714Z,21.25
2022-09-23T14:08:50.444Z,21.34
2022-09-23T14:11:20.616Z,21.02
2022-09-23T14:13:48.675Z,21.17
2022-09-23T14:16:16.128Z,20.74
2022-09-23T14:18:47.222Z,21.18
2022-09-23T14:21:35.449Z,21.16
2022-09-23T14:24:20.787Z,21.22
2022-09-23T14:26:59.471Z,20.85
2022-09-23T14:29:29.703Z,20.71
2022-09-23T14:32:06.560Z,20.94
2022-09-23T14:34:47.087Z,21.02
2022-09-23T14:37:41.068Z,20.83
2022-09-23T14:40:16.140Z,20.62
2022-09-23T14:42:47.186Z,20.66
2022-09-23T14:45:25.493Z,20.75
2022-09-23T14:48:08.376Z,20.98
2022-09-23T14:50:57.760Z,21.17
2022-09-23T14:53:56.790Z,21.06
2022-09-23T14:56:25.396Z,21.28
2022-09-23T14:58:57.631Z,21.24
2022-09-23T15:01:26.779Z,21.07
2022-09-23T15:04:14.177Z,20.98
2022-09-23T15:06:43.913Z,21.13
2022-09-23T15:09:12.023Z,21.21
2022-09-23T15:11:46.588Z,20.84
2022-09-23T15:14:36.669Z,21.10
2022-09-23T15:17:03.644Z,21.17
2022-09-23T15:19:41.125Z,21.13
2022-09-23T15:22:08.416Z,20.93
2022-09-23T15:24:35.734Z,21.06
2022-09-23T15:27:10.571Z,20.78
2022-09-23T15:29:38.975Z,20.59
2022-09-23T15:32:13.211Z,20.75
2022-09-23T15:34:40.856Z,20.78
2022-09-23T15:37:10.658Z,20.75
2022-09-23T15:39:41.346Z,20.48
2022-09-23T15:42:13.055Z,20.62
2022-09-23T15:44:42.950Z,20.45
2022-09-23T15:47:21.384Z,20.53
2022-09-23T15:49:53.222Z,20.55
2022-09-23T15:52:24.106Z,20.41
2022-09-23T15:54:53.795Z,20.35
2022-09-23T15:57:23.075Z,20.25
2022-09-23T15:59:50.481Z,20.25
2022-09-23T16:02:22.624Z,20.17
2022-09-23T16:04:56.866Z,20.20
2022-09-23T16:07:28.773Z,20.00
2022-09-23T16:09:59.287Z,19.98
2022-09-23T16:12:34.876Z,19.91
2022-09-23T16:15:02.952Z,19.69
2022-09-23T16:17:31.487Z,19.62
2022-09-23T16:19:59.372Z,19.44
2022-09-23T16:22:33.813Z,19.33
2022-09-23T16:25:10.544Z,19.48
2022-09-23T16:27:40.485Z,19.06
2022-09-23T16:30:08.249Z,19.13
2022-09-23T16:32:38.684Z,18.99
2022-09-23T16:35:12.551Z,19.04
2022-09-23T16:37:45.508Z,18.93
2022-09-23T16:40:27.930Z,19.02
2022-09-23T16:43:02.389Z,18.83
2022-09-23T16:45:38.217Z,18.72
2022-09-23T16:48:08.383Z,18.59
2022-09-23T16:50:42.732Z,18.45
2022-09-23T16:53:10.520Z,18.50
2022-09-23T16:55:39.075Z,18.33
2022-09-23T16:58:06.410Z,18.33
2022-09-23T17:00:52.672Z,18.15
2022-09-23T17:03:39.856Z,17.74
2022-09-23T17:06:15.317Z,17.59
2022-09-23T17:08:43.315Z,17.39
2022-09-23T17:11:14.960Z,17.47
2022-09-23T17:13:44.156Z,17.46
2022-09-23T17:16:12.312Z,17.38
2022-09-23T17:18:39.772Z,17.17
2022-09-23T17:21:08.522Z,17.09
2022-09-23T17:23:37.326Z,16.83
2022-09-23T17:26:10.260Z,16.76
2022-09-23T17:28:38.080Z,16.60
2022-09-23T17:31:06.818Z,16.55
2022-09-23T17:33:41.860Z,16.47
2022-09-23T17:36:15.418Z,16.48
2022-09-23T17:38:48.193Z,16.59
2022-09-23T17:41:23.449Z,16.16
2022-09-23T17:43:54.908Z,16.29
2022-09-23T17:46:24.729Z,16.26
2022-09-23T17:48:59.929Z,15.92
2022-09-23T17:51:33.899Z,15.85
2022-09-23T17:54:09.484Z,15.76
2022-09-23T17:56:45.950Z,16.03
2022-09-23T17:59:18.983Z,15.90
2022-09-23T18:01:52.902Z,15.77
2022-09-23T18:04:28.251Z,15.90
2022-09-23T18:06:58.809Z,15.58
2022-09-23T18:09:31.689Z,15.30
2022-09-23T18:12:08.875Z,14.99
2022-09-23T18:14:40.920Z,15.38
2022-09-23T18:17:14.028Z,15.28
2022-09-23T18:19:50.936Z,15.26
2022-09-23T18:22:26.793Z,15.39
2022-09-23T18:25:00.286Z,15.46
2022-09-23T18:27:33.558Z,15.41
2022-09-23T18:30:10.439Z,15.23
2022-09-23T18:32:41.055Z,15.11
2022-09-23T18:35:15.088Z,15.18
2022-09-23T18:37:49.037Z,15.23
2022-09-23T18:40:35.014Z,15.07
2022-09-23T18:43:06.914Z,15.07
2022-09-23T18:45:39.605Z,15.04
2022-09-23T18:48:28.801Z,14.62
2022-09-23T18:51:38.594Z,14.83
2022-09-23T18:54:11.969Z,14.94
2022-09-23T18:56:45.957Z,14.70
2022-09-23T18:59:25.993Z,14.61
2022-09-23T19:02:46.713Z,14.36
2022-09-23T19:05:25.677Z,14.75
2022-09-23T19:08:22.261Z,14.72
2022-09-23T19:11:00.089Z,14.57
2022-09-23T19:13:43.811Z,14.33
2022-09-23T19:17:02.395Z,14.42
2022-09-23T19:20:05.778Z,14.57
2022-09-23T19:23:18.480Z,14.54
2022-09-23T19:26:07.227Z,14.37
2022-09-23T19:29:13.650Z,14.32
2022-09-23T19:31:45.299Z,14.42
2022-09-23T19:34:20.072Z,14.41
2022-09-23T19:36:50.576Z,14.38
2022-09-23T19:39:22.493Z,14.39
2022-09-23T19:41:56.346Z,14.16
2022-09-23T19:44:30.044Z,14.00
2022-09-23T19:47:00.587Z,14.02
2022-09-23T19:49:31.529Z,14.07
2022-09-23T19:52:01.540Z,13.67
2022-09-23T19:54:31.760Z,13.73
2022-09-23T19:57:00.182Z,13.71
2022-09-23T19:59:31.385Z,13.55
2022-09-23T20:02:06.312Z,13.64
2022-09-23T20:04:50.219Z,13.78
2022-09-23T20:07:23.276Z,13.38
2022-09-23T20:09:58.392Z,13.42
2022-09-23T20:12:32.959Z,13.57
2022-09-23T20:15:09.548Z,13.43
2022-09-23T20:17:45.435Z,13.34
2022-09-23T20:20:23.739Z,13.29
2022-09-23T20:23:02.746Z,13.36
2022-09-23T20:25:54.610Z,13.30
2022-09-23T20:28:34.502Z,13.01
2022-09-23T20:31:19.444Z,13.23
2022-09-23T20:34:03.173Z,13.00
2022-09-23T20:36:37.645Z,13.08
2022-09-23T20:39:32.161Z,13.02
2022-09-23T20:42:11.898Z,12.89
2022-09-23T20:45:04.825Z,13.17
2022-09-23T20:47:38.073Z,13.00
2022-09-23T20:50:11.959Z,12.95
2022-09-23T20:52:49.083Z,12.89
2022-09-23T20:55:29.578Z,12.93
2022-09-23T20:58:19.492Z,12.79
2022-09-23T21:00:48.766Z,12.80
2022-09-23T21:03:15.905Z,12.54
2022-09-23T21:05:42.601Z,12.76
2022-09-23T21:08:09.462Z,12.51
2022-09-23T21:10:36.498Z,12.76
2022-09-23T21:13:06.845Z,12.68
2022-09-23T21:15:36.455Z,12.69
2022-09-23T21:18:04.548Z,12.54
2022-09-23T21:20:31.735Z,12.60
2022-09-23T21:22:58.483Z,12.53
2022-09-23T21:25:28.285Z,12.62
2022-09-23T21:27:55.365Z,12.20
2022-09-23T21:30:22.981Z,12.19
2022-09-23T21:32:49.987Z,12.03
2022-09-23T21:35:18.883Z,12.55
2022-09-23T21:37:45.921Z,12.56
2022-09-23T21:40:31.426Z,12.30
2022-09-23T21:42:59.336Z,12.45
2022-09-23T21:45:29.306Z,12.51
2022-09-23T21:47:56.236Z,12.28
2022-09-23T21:50:22.946Z,12.33
2022-09-23T21:52:51.960Z,12.41
2022-09-23T21:55:19.034Z,12.26
2022-09-23T21:57:46.218Z,12.19
2022-09-23T22:00:14.433Z,12.08
2022-09-23T22:02:41.446Z,12.17
2022-09-23T22:05:08.243Z,12.00
2022-09-23T22:07:40.921Z,12.04
2022-09-23T22:10:08.112Z,12.18
2022-09-23T22:12:34.847Z,12.01
2022-09-23T22:15:01.806Z,12.05
2022-09-23T22:17:30.667Z,11.98
2022-09-23T22:19:58.509Z,11.91
2022-09-23T22:22:25.619Z,12.08
2022-09-23T22:24:52.688Z,12.12
2022-09-23T22:27:19.725Z,11.85
2022-09-23T22:30:05.379Z,11.99
2022-09-23T22:32:41.306Z,11.73
2022-09-23T22:35:09.872Z,11.82
2022-09-23T22:37:37.243Z,11.77
2022-09-23T22:40:05.420Z,11.82
2022-09-23T22:42:32.708Z,11.72
2022-09-23T22:45:00.745Z,11.47
2022-09-23T22:47:27.406Z,11.46
2022-09-23T22:49:55.565Z,11.51
2022-09-23T22:52:24.608Z,11.24
2022-09-23T22:54:51.887Z,11.12
2022-09-23T22:57:19.379Z,11.31
2022-09-23T22:59:48.268Z,11.40
2022-09-23T23:02:16.299Z,11.45
2022-09-23T23:04:45.197Z,11.38
2022-09-23T23:07:13.413Z,11.47
2022-09-23T23:09:40.435Z,11.08
2022-09-23T23:12:07.271Z,11.53
2022-09-23T23:14:34.235Z,11.60
2022-09-23T23:17:01.049Z,11.34
2022-09-23T23:19:30.821Z,11.57
2022-09-23T23:22:00.147Z,11.31
2022-09-23T23:24:26.950Z,11.55
2022-09-23T23:26:53.692Z,11.14
2022-09-23T23:29:21.198Z,11.30
2022-09-23T23:31:48.140Z,11.17
2022-09-23T23:34:16.273Z,11.32
2022-09-23T23:36:43.765Z,11.32
2022-09-23T23:39:10.517Z,11.07
2022-09-23T23:41:39.487Z,11.39
2022-09-23T23:44:07.076Z,11.29
2022-09-23T23:46:33.968Z,10.81
2022-09-23T23:49:00.743Z,10.98
2022-09-23T23:51:30.137Z,11.07
2022-09-23T23:53:58.729Z,11.10
2022-09-23T23:56:25.480Z,11.05
2022-09-23T23:58:56.010Z,11.00
